Time;durP1;ratioP1;P1;durP2;ratioP2;P2;SDS_P1;SDS_P2;PMS_P1;PMS_P2;Temp;Humidity;BMP_temperature;BMP_pressure;BME280_temperature;BME280_humidity;BME280_pressure;Samples;Min_cycle;Max_cycle;Signal;HPM_P1;HPM_P2
2022/09/09 00:02:17;;;;;;;4.57;3.17;;;15.20;99.90;;;;;;5027424;28;20189;-59
2022/09/09 00:05:22;;;;;;;4.88;2.80;;;15.30;99.90;;;;;;5045076;28;20053;-59
2022/09/09 00:07:51;;;;;;;4.53;2.35;;;15.20;99.90;;;;;;5043990;28;20033;-59
2022/09/09 00:10:29;;;;;;;5.05;3.10;;;15.20;99.90;;;;;;5047540;28;20053;-59
2022/09/09 00:13:01;;;;;;;5.22;2.88;;;15.10;99.90;;;;;;5030036;28;20024;-59
2022/09/09 00:15:38;;;;;;;5.55;2.85;;;15.10;99.90;;;;;;5045631;28;20029;-59
2022/09/09 00:18:40;;;;;;;5.18;3.38;;;15.00;99.90;;;;;;5045171;28;20056;-59
2022/09/09 00:21:12;;;;;;;4.10;2.40;;;15.00;99.90;;;;;;5018352;28;20036;-59
2022/09/09 00:23:44;;;;;;;3.67;2.50;;;15.00;99.90;;;;;;5047542;28;20684;-59
2022/09/09 00:26:21;;;;;;;5.38;2.15;;;15.00;99.90;;;;;;5034294;28;20396;-59
2022/09/09 00:29:25;;;;;;;3.70;1.98;;;15.00;99.90;;;;;;5045702;28;20381;-58
2022/09/09 00:31:57;;;;;;;3.42;1.83;;;15.00;99.90;;;;;;4966720;28;20081;-59
2022/09/09 00:34:24;;;;;;;3.75;1.95;;;15.00;99.90;;;;;;4967062;28;20031;-59
2022/09/09 00:36:53;;;;;;;3.08;1.67;;;15.00;99.90;;;;;;5007763;28;20032;-59
2022/09/09 00:39:25;;;;;;;4.88;1.85;;;14.90;99.90;;;;;;5051181;28;20064;-59
2022/09/09 00:42:13;;;;;;;5.00;1.75;;;14.90;99.90;;;;;;5051115;28;20029;-59
2022/09/09 00:44:58;;;;;;;3.08;1.83;;;14.90;99.90;;;;;;5050701;28;20037;-59
2022/09/09 00:47:46;;;;;;;3.55;1.90;;;14.90;99.90;;;;;;5051301;28;20047;-59
2022/09/09 00:50:44;;;;;;;2.58;1.60;;;14.80;99.90;;;;;;5049584;28;20021;-59
2022/09/09 00:53:24;;;;;;;3.30;1.83;;;14.80;99.90;;;;;;5049369;28;20045;-59
2022/09/09 00:56:05;;;;;;;3.78;1.83;;;14.70;99.90;;;;;;5049737;28;20032;-59
2022/09/09 00:58:30;;;;;;;2.75;1.70;;;14.70;99.90;;;;;;5050752;28;20025;-59
2022/09/09 01:01:08;;;;;;;3.22;2.38;;;14.60;99.90;;;;;;5031292;28;20047;-59
2022/09/09 01:03:38;;;;;;;3.33;1.80;;;14.60;99.90;;;;;;5051028;28;20381;-59
2022/09/09 01:09:47;;;;;;;3.33;1.90;;;14.60;99.90;;;;;;5036621;28;20047;-59
2022/09/09 01:12:14;;;;;;;;;;;14.50;99.90;;;;;;4964544;28;20042;-59
2022/09/09 01:14:44;;;;;;;3.50;2.33;;;14.50;99.90;;;;;;5049733;28;19931;-59
2022/09/09 01:17:26;;;;;;;3.15;1.95;;;14.40;99.90;;;;;;5050520;28;20016;-59
2022/09/09 01:20:18;;;;;;;4.32;2.35;;;14.40;99.90;;;;;;5049198;28;20035;-59
2022/09/09 01:22:50;;;;;;;3.28;2.30;;;14.40;99.90;;;;;;5041992;28;20067;-59
2022/09/09 01:25:43;;;;;;;3.60;2.72;;;14.40;99.90;;;;;;5050295;28;20072;-59
2022/09/09 01:28:15;;;;;;;5.50;2.50;;;14.40;99.90;;;;;;5047703;28;20016;-59
2022/09/09 01:30:41;;;;;;;3.70;2.30;;;14.30;99.90;;;;;;5050541;28;20036;-58
2022/09/09 01:33:13;;;;;;;3.20;2.55;;;14.30;99.90;;;;;;5050121;28;20021;-59
2022/09/09 01:35:50;;;;;;;2.65;2.38;;;14.30;99.90;;;;;;5050550;28;20536;-59
2022/09/09 01:38:19;;;;;;;5.95;2.85;;;14.30;99.90;;;;;;5048575;28;20075;-59
2022/09/09 01:40:44;;;;;;;3.35;2.25;;;14.30;99.90;;;;;;5048423;28;20052;-58
2022/09/09 01:43:10;;;;;;;3.05;2.45;;;14.20;99.90;;;;;;5033482;28;20484;-59
2022/09/09 01:45:38;;;;;;;6.43;2.90;;;14.20;99.90;;;;;;5049032;28;20021;-59
2022/09/09 01:50:54;;;;;;;3.95;2.83;;;14.20;99.90;;;;;;5049603;28;20025;-59
2022/09/09 01:54:00;;;;;;;5.28;2.97;;;14.20;99.90;;;;;;5049770;28;20017;-59
2022/09/09 01:56:43;;;;;;;4.72;2.88;;;14.10;99.90;;;;;;5051240;28;20029;-59
2022/09/09 01:59:14;;;;;;;4.97;2.95;;;14.10;99.90;;;;;;5047304;28;20025;-58
2022/09/09 02:01:43;;;;;;;4.22;3.15;;;14.10;99.90;;;;;;5049573;28;20024;-58
2022/09/09 02:04:27;;;;;;;3.25;2.63;;;14.10;99.90;;;;;;5049686;28;20056;-59
2022/09/09 02:07:01;;;;;;;4.55;3.15;;;14.10;99.90;;;;;;5050081;28;20033;-59
2022/09/09 02:09:33;;;;;;;2.92;2.60;;;14.10;99.90;;;;;;5047828;28;20493;-59
2022/09/09 02:12:13;;;;;;;3.60;3.08;;;14.10;99.90;;;;;;5030092;28;20033;-59
2022/09/09 02:14:48;;;;;;;5.60;2.45;;;14.00;99.90;;;;;;5050518;28;20108;-59
2022/09/09 02:17:27;;;;;;;7.82;3.20;;;14.00;99.90;;;;;;5048244;28;20033;-59
2022/09/09 02:20:08;;;;;;;3.30;2.93;;;14.00;99.90;;;;;;5049376;28;20507;-59
2022/09/09 02:22:45;;;;;;;3.92;2.90;;;14.00;99.90;;;;;;5048081;28;20033;-59
2022/09/09 02:28:09;;;;;;;3.40;2.85;;;14.00;99.90;;;;;;4999605;28;20029;-59
2022/09/09 02:30:36;;;;;;;;;;;14.00;99.90;;;;;;5049327;28;20020;-59
2022/09/09 02:33:13;;;;;;;3.13;2.83;;;14.00;99.90;;;;;;5031247;28;19905;-58
2022/09/09 02:36:23;;;;;;;4.43;2.63;;;14.00;99.90;;;;;;5048968;28;20693;-59
2022/09/09 02:38:50;;;;;;;2.75;2.47;;;14.00;99.90;;;;;;5038846;28;20397;-59
2022/09/09 02:41:24;;;;;;;2.95;2.60;;;14.00;99.90;;;;;;5048895;28;20097;-59
2022/09/09 02:43:50;;;;;;;3.17;2.83;;;14.00;99.90;;;;;;5049117;28;20100;-59
2022/09/09 02:46:51;;;;;;;3.38;2.75;;;14.00;99.90;;;;;;5036562;28;20131;-59
2022/09/09 02:49:43;;;;;;;4.32;2.55;;;14.00;99.90;;;;;;5038360;28;20017;-58
2022/09/09 02:52:17;;;;;;;3.83;2.70;;;14.00;99.90;;;;;;5050931;28;20025;-59
2022/09/09 02:54:43;;;;;;;4.05;2.90;;;13.90;99.90;;;;;;5048785;28;20021;-58
2022/09/09 02:57:29;;;;;;;5.00;2.90;;;13.90;99.90;;;;;;5048423;28;20376;-59
2022/09/09 02:59:58;;;;;;;6.00;3.40;;;14.00;99.90;;;;;;5047376;28;20057;-58
2022/09/09 03:02:31;;;;;;;3.90;2.92;;;14.00;99.90;;;;;;5048358;28;20053;-59
2022/09/09 03:04:57;;;;;;;8.50;3.50;;;14.00;99.90;;;;;;5036554;28;20083;-59
2022/09/09 03:07:23;;;;;;;4.50;3.50;;;14.00;99.90;;;;;;5048804;28;20045;-58
2022/09/09 03:09:49;;;;;;;4.60;2.80;;;14.00;99.90;;;;;;5048369;28;20413;-58
2022/09/09 03:12:15;;;;;;;6.18;2.83;;;13.90;99.90;;;;;;5048267;28;20017;-59
2022/09/09 03:14:40;;;;;;;4.20;2.97;;;13.90;99.90;;;;;;5047983;28;20403;-59
2022/09/09 03:17:17;;;;;;;3.42;2.80;;;13.90;99.90;;;;;;5048468;28;20024;-58
2022/09/09 03:19:42;;;;;;;3.63;2.90;;;13.90;99.90;;;;;;5009626;28;20051;-58
2022/09/09 03:22:11;;;;;;;3.72;2.95;;;13.90;99.90;;;;;;5048191;28;20465;-59
2022/09/09 03:24:36;;;;;;;3.75;2.70;;;13.90;99.90;;;;;;5048604;28;20029;-58
2022/09/09 03:27:38;;;;;;;;;;;;;;;;;;;;;
2022/09/09 03:30:05;;;;;;;6.80;2.80;;;14.00;99.90;;;;;;5047898;28;20021;-59
2022/09/09 03:32:45;;;;;;;;;;;;;;;;;;;;;
2022/09/09 03:35:11;;;;;;;4.80;2.90;;;13.90;99.90;;;;;;5049659;28;20032;-58
2022/09/09 03:38:10;;;;;;;8.73;3.35;;;14.00;99.90;;;;;;5048189;28;20460;-59
2022/09/09 03:41:26;;;;;;;6.90;3.08;;;14.00;99.90;;;;;;5048186;28;20032;-58
2022/09/09 03:43:52;;;;;;;6.05;3.25;;;14.00;99.90;;;;;;5044982;28;20485;-58
2022/09/09 03:46:19;;;;;;;11.43;4.25;;;13.90;99.90;;;;;;5047931;28;20036;-58
2022/09/09 03:48:44;;;;;;;7.28;3.00;;;13.90;99.90;;;;;;5048116;28;20017;-58
2022/09/09 03:51:10;;;;;;;9.93;3.72;;;14.00;99.90;;;;;;5048234;28;20025;-58
2022/09/09 03:54:10;;;;;;;5.72;3.08;;;14.00;99.90;;;;;;5048010;28;20100;-58
2022/09/09 03:56:36;;;;;;;4.03;3.05;;;14.00;99.90;;;;;;5046834;28;20029;-58
2022/09/09 03:59:02;;;;;;;5.88;3.65;;;14.00;99.90;;;;;;5048049;28;20040;-59
2022/09/09 04:01:28;;;;;;;5.43;3.38;;;14.10;99.90;;;;;;5047867;28;20102;-59
2022/09/09 04:04:12;;;;;;;8.75;4.57;;;14.10;99.90;;;;;;5047998;28;20108;-58
2022/09/09 04:06:38;;;;;;;9.15;3.65;;;14.10;99.90;;;;;;5044864;28;20106;-58
2022/09/09 04:09:33;;;;;;;;;;;;;;;;;;;;;
2022/09/09 04:11:58;;;;;;;5.93;3.42;;;14.20;99.90;;;;;;5025647;28;20024;-59
2022/09/09 04:14:27;;;;;;;5.05;3.22;;;14.10;99.90;;;;;;5029408;28;20017;-58
2022/09/09 04:16:59;;;;;;;7.47;3.95;;;14.20;99.90;;;;;;5031643;28;20025;-58
2022/09/09 04:19:25;;;;;;;8.85;4.00;;;14.20;99.90;;;;;;5029783;28;20026;-58
2022/09/09 04:21:51;;;;;;;10.10;3.53;;;14.20;99.90;;;;;;5031391;28;20491;-58
2022/09/09 04:24:19;;;;;;;5.18;3.45;;;14.20;99.90;;;;;;5030794;28;20030;-58
2022/09/09 04:26:45;;;;;;;7.35;3.47;;;14.30;99.90;;;;;;5025187;28;20193;-58
2022/09/09 04:29:10;;;;;;;8.82;3.30;;;14.30;99.90;;;;;;5030588;28;20128;-58
2022/09/09 04:31:37;;;;;;;6.35;3.67;;;14.30;99.90;;;;;;5028216;28;20030;-58
2022/09/09 04:34:05;;;;;;;5.10;3.67;;;14.30;99.90;;;;;;5028370;28;20026;-58
2022/09/09 04:36:32;;;;;;;7.22;3.88;;;14.30;99.90;;;;;;5025809;28;20033;-58
2022/09/09 04:38:58;;;;;;;7.93;3.70;;;14.30;99.90;;;;;;5019042;28;20050;-58
2022/09/09 04:41:24;;;;;;;7.20;4.43;;;14.30;99.90;;;;;;5021558;28;20113;-58
2022/09/09 04:43:59;;;;;;;7.43;3.80;;;14.40;99.90;;;;;;5017938;28;20022;-58
2022/09/09 04:46:25;;;;;;;7.70;4.03;;;14.40;99.90;;;;;;5016172;28;20029;-58
2022/09/09 04:49:00;;;;;;;6.82;3.78;;;14.40;99.90;;;;;;5028255;28;20072;-58
2022/09/09 04:51:25;;;;;;;8.05;3.38;;;14.40;99.90;;;;;;5013037;28;20117;-58
2022/09/09 04:53:53;;;;;;;9.57;4.18;;;14.50;99.90;;;;;;5029911;28;20068;-58
2022/09/09 04:56:19;;;;;;;7.78;3.50;;;14.50;99.90;;;;;;5018039;28;20018;-58
2022/09/09 04:58:45;;;;;;;7.97;4.10;;;14.50;99.90;;;;;;5013564;28;20080;-58
2022/09/09 05:01:20;;;;;;;8.13;3.70;;;14.50;99.90;;;;;;5017104;28;20474;-58
2022/09/09 05:03:46;;;;;;;9.20;4.00;;;14.50;99.90;;;;;;5021050;28;20048;-58
2022/09/09 05:06:14;;;;;;;6.13;3.83;;;14.50;99.90;;;;;;5017284;28;20030;-58
2022/09/09 05:08:41;;;;;;;6.45;3.65;;;14.50;99.90;;;;;;5019911;28;20017;-58
2022/09/09 05:11:36;;;;;;;6.03;2.95;;;14.50;99.90;;;;;;5044989;28;20108;-58
2022/09/09 05:14:02;;;;;;;6.88;3.25;;;14.50;99.90;;;;;;5037250;28;20025;-58
2022/09/09 05:16:29;;;;;;;8.20;3.03;;;14.50;99.90;;;;;;5059484;28;20392;-59
2022/09/09 05:19:26;;;;;;;7.32;3.30;;;14.60;99.90;;;;;;5060102;28;20024;-58
2022/09/09 05:21:51;;;;;;;5.97;3.10;;;14.60;99.90;;;;;;5052804;28;20401;-58
2022/09/09 05:24:17;;;;;;;6.68;3.42;;;14.60;99.90;;;;;;5054307;28;20024;-58
2022/09/09 05:27:24;;;;;;;7.20;3.38;;;14.60;99.90;;;;;;5053779;28;20440;-58
2022/09/09 05:29:44;;;;;;;8.07;3.15;;;14.70;99.90;;;;;;5048983;28;20040;-58
2022/09/09 05:32:33;;;;;;;9.07;3.40;;;14.70;99.90;;;;;;5054140;28;20021;-58
2022/09/09 05:34:58;;;;;;;6.13;2.75;;;14.70;99.90;;;;;;5038813;28;20027;-58
2022/09/09 05:37:24;;;;;;;9.63;3.13;;;14.70;99.90;;;;;;5053917;28;20111;-58
2022/09/09 05:39:57;;;;;;;7.82;2.78;;;14.80;99.90;;;;;;5052718;28;20099;-58
2022/09/09 05:45:36;;;;;;;8.40;3.08;;;14.80;99.90;;;;;;5010487;28;20053;-58
2022/09/09 05:48:01;;;;;;;8.10;3.38;;;14.80;99.90;;;;;;5028296;28;20436;-58
2022/09/09 05:53:51;;;;;;;8.70;3.28;;;14.90;99.90;;;;;;4950702;28;20407;-58
2022/09/09 06:01:01;;;;;;;9.18;2.47;;;15.00;99.90;;;;;;4871623;29;20040;-58
2022/09/09 06:03:57;;;;;;;8.80;3.22;;;15.00;99.90;;;;;;4958103;28;20456;-58
2022/09/09 06:06:25;;;;;;;6.97;2.35;;;15.00;99.90;;;;;;5027452;28;20119;-58
2022/09/09 06:09:11;;;;;;;;;;;;;;;;;;;;;
2022/09/09 06:11:39;;;;;;;8.90;2.83;;;15.10;99.90;;;;;;5059453;28;20028;-58
2022/09/09 06:14:05;;;;;;;8.18;2.88;;;15.10;99.90;;;;;;5048858;28;20017;-58
2022/09/09 06:16:34;;;;;;;6.70;2.25;;;15.10;99.90;;;;;;5053051;28;20111;-58
2022/09/09 06:19:02;;;;;;;7.40;2.13;;;15.20;99.90;;;;;;5034903;28;20405;-58
2022/09/09 06:21:39;;;;;;;8.38;2.53;;;15.20;99.90;;;;;;5053599;28;20072;-58
2022/09/09 06:31:12;;;;;;;5.53;2.33;;;15.40;99.90;;;;;;4891855;29;20552;-58
2022/09/09 06:33:40;;;;;;;10.27;2.83;;;15.40;99.90;;;;;;4941659;28;20030;-58
2022/09/09 06:36:10;;;;;;;9.63;2.23;;;15.40;99.90;;;;;;4971444;28;20038;-58
2022/09/09 06:38:35;;;;;;;10.27;2.45;;;15.40;99.90;;;;;;5021816;28;20036;-58
2022/09/09 06:41:01;;;;;;;6.18;2.13;;;15.40;99.90;;;;;;5030792;28;20431;-58
2022/09/09 06:43:28;;;;;;;10.23;2.92;;;15.50;99.90;;;;;;5051526;28;20036;-58
2022/09/09 06:46:04;;;;;;;7.43;2.60;;;15.50;99.90;;;;;;5033091;28;20025;-58
2022/09/09 06:48:29;;;;;;;5.85;2.72;;;15.50;99.90;;;;;;5052175;28;20024;-58
2022/09/09 07:01:06;;;;;;;7.10;2.38;;;15.70;99.90;;;;;;4805433;29;20443;-59
2022/09/09 07:06:42;;;;;;;10.80;3.00;;;15.80;99.90;;;;;;4952450;28;20037;-58
2022/09/09 07:09:10;;;;;;;8.25;3.15;;;15.90;99.90;;;;;;5031546;28;20421;-59
2022/09/09 07:11:44;;;;;;;10.93;3.03;;;15.90;99.90;;;;;;5038496;28;20465;-58
2022/09/09 07:14:13;;;;;;;10.82;2.90;;;16.00;99.90;;;;;;5051545;28;20029;-58
2022/09/09 07:16:40;;;;;;;8.35;2.25;;;16.00;99.90;;;;;;5051793;28;20028;-58
2022/09/09 07:19:06;;;;;;;8.82;2.67;;;16.00;99.90;;;;;;5051710;28;20013;-58
2022/09/09 07:21:32;;;;;;;10.30;2.50;;;16.10;99.90;;;;;;5052069;28;20039;-59
2022/09/09 07:23:59;;;;;;;10.20;2.97;;;16.10;99.90;;;;;;5057819;28;20023;-58
2022/09/09 07:26:26;;;;;;;9.18;2.97;;;16.20;99.90;;;;;;5047121;28;20025;-59
2022/09/09 07:29:00;;;;;;;11.43;2.63;;;16.30;99.90;;;;;;5058056;28;20016;-58
2022/09/09 07:31:30;;;;;;;8.48;3.25;;;16.40;99.90;;;;;;5025269;28;20075;-58
2022/09/09 07:33:55;;;;;;;;;;;16.40;99.90;;;;;;5042571;28;20473;-58
2022/09/09 07:36:55;;;;;;;10.05;2.80;;;16.40;99.90;;;;;;5051346;28;19950;-58
2022/09/09 07:40:22;;;;;;;9.98;2.53;;;16.50;99.90;;;;;;5051608;28;20052;-58
2022/09/09 07:42:47;;;;;;;5.68;2.33;;;16.50;99.90;;;;;;5028345;28;20033;-58
2022/09/09 07:45:44;;;;;;;10.43;2.50;;;16.50;99.90;;;;;;5037707;28;20040;-58
2022/09/09 07:48:10;;;;;;;6.97;2.13;;;16.60;99.90;;;;;;5036175;28;20036;-58
2022/09/09 07:51:19;;;;;;;7.93;2.88;;;16.70;99.90;;;;;;5035341;28;20024;-59
2022/09/09 07:53:46;;;;;;;7.53;2.35;;;16.80;99.90;;;;;;5023745;28;20428;-58
2022/09/09 07:56:17;;;;;;;8.05;2.25;;;16.80;99.90;;;;;;5058408;28;20511;-58
2022/09/09 07:58:46;;;;;;;12.27;3.13;;;16.90;99.90;;;;;;5048126;28;20096;-59
2022/09/09 08:01:17;;;;;;;;;;;17.00;99.90;;;;;;5056022;28;20013;-58
2022/09/09 08:04:24;;;;;;;7.28;2.13;;;17.00;99.90;;;;;;5054589;28;19905;-59
2022/09/09 08:07:49;;;;;;;;;;;;;;;;;;;;;
2022/09/09 08:10:15;;;;;;;7.57;2.08;;;17.00;99.90;;;;;;4991762;28;20048;-58
2022/09/09 08:12:41;;;;;;;9.52;2.50;;;17.10;99.90;;;;;;5055670;28;20078;-59
2022/09/09 08:15:07;;;;;;;8.80;1.95;;;17.10;99.90;;;;;;5053251;28;20037;-59
2022/09/09 08:17:32;;;;;;;7.22;2.08;;;17.20;99.90;;;;;;5060722;28;20029;-59
2022/09/09 08:20:04;;;;;;;6.43;1.80;;;17.20;99.90;;;;;;5039013;28;20009;-58
2022/09/09 08:22:30;;;;;;;5.28;1.40;;;17.20;99.90;;;;;;5056060;28;20381;-59
2022/09/09 08:24:56;;;;;;;9.63;1.70;;;17.30;99.90;;;;;;5055546;28;20047;-59
2022/09/09 08:27:22;;;;;;;9.45;1.92;;;17.40;99.90;;;;;;5053736;28;20020;-59
2022/09/09 08:29:48;;;;;;;10.07;1.55;;;17.40;99.90;;;;;;5053803;28;20099;-58
2022/09/09 08:32:13;;;;;;;6.82;1.30;;;17.50;99.90;;;;;;5053868;28;20099;-59
2022/09/09 08:34:41;;;;;;;6.30;1.00;;;17.50;99.90;;;;;;5059087;28;20025;-58
2022/09/09 08:37:06;;;;;;;6.30;1.10;;;17.50;99.90;;;;;;5034322;28;20025;-59
2022/09/09 08:39:32;;;;;;;8.38;1.70;;;17.60;99.90;;;;;;5055827;28;20131;-58
2022/09/09 08:42:17;;;;;;;11.70;1.70;;;17.60;99.60;;;;;;5059732;28;20013;-59
2022/09/09 08:48:41;;;;;;;4.05;1.10;;;17.60;99.30;;;;;;4968993;28;20026;-59
2022/09/09 08:51:07;;;;;;;5.93;1.25;;;17.60;98.90;;;;;;5058819;28;20019;-59
2022/09/09 08:53:47;;;;;;;5.70;1.00;;;17.50;98.80;;;;;;5055810;28;20019;-59
2022/09/09 08:56:18;;;;;;;7.05;1.70;;;17.50;98.60;;;;;;5053700;28;20025;-59
2022/09/09 08:58:49;;;;;;;8.18;1.42;;;17.40;99.00;;;;;;5058223;28;20049;-59
2022/09/09 09:01:25;;;;;;;8.25;1.40;;;17.50;99.50;;;;;;5053495;28;20036;-59
2022/09/09 09:04:23;;;;;;;7.25;1.60;;;17.50;99.10;;;;;;5055463;28;20017;-58
2022/09/09 09:07:22;;;;;;;4.43;1.10;;;17.50;98.80;;;;;;5054334;28;20048;-59
2022/09/09 09:10:08;;;;;;;6.65;1.45;;;17.50;99.10;;;;;;5052506;28;20557;-59
2022/09/09 09:12:41;;;;;;;10.13;3.00;;;17.50;98.80;;;;;;5047702;28;20024;-59
2022/09/09 09:15:26;;;;;;;8.65;1.70;;;17.50;98.90;;;;;;5056143;28;20060;-59
2022/09/09 09:17:51;;;;;;;8.13;1.85;;;17.60;98.50;;;;;;5043041;28;20025;-59
2022/09/09 09:20:27;;;;;;;6.10;1.10;;;17.60;98.50;;;;;;5051648;28;20402;-59
2022/09/09 09:22:59;;;;;;;5.15;1.25;;;17.70;98.90;;;;;;5057729;28;20511;-59
2022/09/09 09:25:34;;;;;;;6.10;1.55;;;17.70;98.60;;;;;;5039711;28;20029;-59
2022/09/09 09:28:01;;;;;;;7.53;1.50;;;17.70;98.30;;;;;;5044776;28;20045;-59
2022/09/09 09:30:49;;;;;;;;;;;;;;;;;;;;;
2022/09/09 09:33:23;;;;;;;4.63;1.43;;;17.80;98.10;;;;;;5039997;28;20026;-59
2022/09/09 09:35:50;;;;;;;6.13;1.60;;;17.90;98.10;;;;;;5043525;28;20020;-59
2022/09/09 09:38:22;;;;;;;10.57;1.70;;;17.90;97.60;;;;;;5053169;28;20549;-59
2022/09/09 09:40:57;;;;;;;8.93;1.48;;;17.90;97.90;;;;;;5052574;28;20016;-59
2022/09/09 09:43:50;;;;;;;7.63;1.13;;;17.90;97.90;;;;;;5041816;28;20032;-59
2022/09/09 09:50:29;;;;;;;5.78;1.58;;;17.90;97.20;;;;;;4916650;29;20380;-59
2022/09/09 09:52:57;;;;;;;5.18;1.15;;;17.90;97.70;;;;;;4908160;29;20039;-59
2022/09/09 09:55:24;;;;;;;11.30;1.48;;;17.90;97.50;;;;;;5030781;28;20523;-59
2022/09/09 09:57:50;;;;;;;6.57;1.38;;;17.80;97.10;;;;;;5042082;28;20021;-59
2022/09/09 10:00:23;;;;;;;8.07;1.73;;;17.80;97.20;;;;;;5033843;28;20477;-59
2022/09/09 10:02:51;;;;;;;7.75;1.58;;;17.90;97.40;;;;;;5041610;28;20052;-59
2022/09/09 10:05:22;;;;;;;8.82;1.42;;;17.90;97.30;;;;;;5039122;28;20104;-59
2022/09/09 10:08:17;;;;;;;6.00;1.45;;;17.90;97.50;;;;;;5034952;28;20148;-59
2022/09/09 10:10:42;;;;;;;5.70;1.70;;;17.90;97.50;;;;;;5018652;28;20091;-59
2022/09/09 10:13:33;;;;;;;5.03;1.10;;;17.90;98.20;;;;;;5047547;28;20017;-59
2022/09/09 10:16:42;;;;;;;7.22;1.48;;;17.90;97.60;;;;;;5049154;28;20053;-59
2022/09/09 10:19:25;;;;;;;6.90;1.63;;;17.90;97.00;;;;;;5048051;28;20035;-59
2022/09/09 10:22:21;;;;;;;6.40;1.85;;;17.90;97.10;;;;;;5032087;28;20033;-59
2022/09/09 10:24:50;;;;;;;5.70;1.48;;;17.90;97.60;;;;;;5030237;28;20021;-59
2022/09/09 10:27:25;;;;;;;8.80;1.42;;;17.90;98.00;;;;;;5032911;28;20108;-59
2022/09/09 10:30:33;;;;;;;;;;;;;;;;;;;;;
2022/09/09 10:36:23;;;;;;;5.63;1.10;;;18.10;97.30;;;;;;4956064;28;20067;-59
2022/09/09 10:39:02;;;;;;;5.68;1.63;;;18.00;97.60;;;;;;5049488;28;20067;-59
2022/09/09 10:41:51;;;;;;;8.98;1.95;;;18.00;97.90;;;;;;5047834;28;20033;-59
2022/09/09 10:44:50;;;;;;;7.60;1.40;;;18.00;97.20;;;;;;5036002;28;20029;-59
2022/09/09 10:47:31;;;;;;;5.65;1.27;;;18.00;97.50;;;;;;5052672;28;20057;-59
2022/09/09 10:50:21;;;;;;;7.55;1.30;;;17.90;97.20;;;;;;5043985;28;20086;-59
2022/09/09 10:53:15;;;;;;;5.90;1.02;;;17.90;98.20;;;;;;5052698;28;20013;-58
2022/09/09 10:55:43;;;;;;;7.22;1.70;;;17.70;99.60;;;;;;5062400;28;20499;-58
2022/09/09 10:58:28;;;;;;;5.35;1.20;;;17.50;99.90;;;;;;5052668;28;20477;-59
2022/09/09 11:00:59;;;;;;;6.57;2.13;;;17.30;99.90;;;;;;5051359;28;20029;-58
2022/09/09 11:04:01;;;;;;;6.47;1.75;;;17.30;99.90;;;;;;5033946;28;20033;-58
2022/09/09 11:13:45;;;;;;;7.43;2.17;;;17.40;99.90;;;;;;4927599;28;20051;-59
2022/09/09 11:16:14;;;;;;;9.25;1.85;;;17.50;99.90;;;;;;5032036;28;20041;-59
2022/09/09 11:18:42;;;;;;;4.53;1.27;;;17.50;99.90;;;;;;5032291;28;20035;-59
2022/09/09 11:21:17;;;;;;;5.63;1.80;;;17.60;99.90;;;;;;5041532;28;20536;-59
2022/09/09 11:23:52;;;;;;;5.53;1.52;;;17.60;99.90;;;;;;5029391;28;20043;-58
2022/09/09 11:26:41;;;;;;;8.32;2.17;;;17.60;99.90;;;;;;5018434;28;20375;-59
2022/09/09 11:29:50;;;;;;;10.73;1.50;;;17.60;99.90;;;;;;5014557;28;20493;-59
2022/09/09 11:32:33;;;;;;;5.93;1.17;;;17.50;99.90;;;;;;5032162;28;20031;-59
2022/09/09 11:35:12;;;;;;;6.32;1.77;;;17.50;99.90;;;;;;5026827;28;20113;-59
2022/09/09 11:40:19;;;;;;;5.53;1.63;;;17.50;99.90;;;;;;5069555;28;20453;-58
2022/09/09 11:42:47;;;;;;;10.35;2.00;;;17.60;99.90;;;;;;5068662;28;20504;-58
2022/09/09 11:45:24;;;;;;;6.00;1.75;;;17.60;99.90;;;;;;5069773;28;20044;-58
2022/09/09 11:47:55;;;;;;;4.95;1.95;;;17.60;99.90;;;;;;5067247;28;20028;-56
2022/09/09 11:50:21;;;;;;;8.00;2.60;;;17.50;99.90;;;;;;5068500;28;20024;-58
2022/09/09 11:52:49;;;;;;;7.85;2.25;;;17.50;99.90;;;;;;5064391;28;20096;-58
2022/09/09 11:55:36;;;;;;;6.57;1.70;;;17.40;99.90;;;;;;5060692;28;20025;-65
2022/09/09 11:58:05;;;;;;;5.95;1.52;;;17.40;99.90;;;;;;5055728;28;20020;-58
2022/09/09 12:00:41;;;;;;;5.28;1.42;;;17.40;99.90;;;;;;5055089;28;20028;-58
2022/09/09 12:03:38;;;;;;;7.95;2.47;;;17.40;99.90;;;;;;5065289;28;20393;-58
2022/09/09 12:06:24;;;;;;;7.53;1.63;;;17.40;99.90;;;;;;5049662;28;20032;-58
2022/09/09 12:09:07;;;;;;;7.32;1.63;;;17.40;99.90;;;;;;5065706;28;20036;-59
2022/09/09 12:11:33;;;;;;;7.90;1.70;;;17.50;99.90;;;;;;5056619;28;20075;-58
2022/09/09 12:14:03;;;;;;;6.90;1.85;;;17.50;99.90;;;;;;5068282;28;20029;-58
2022/09/09 12:16:38;;;;;;;4.95;1.20;;;17.50;99.90;;;;;;5062301;28;20025;-58
2022/09/09 12:19:11;;;;;;;6.40;1.70;;;17.50;99.90;;;;;;5070173;28;20059;-59
2022/09/09 12:22:05;;;;;;;5.28;1.30;;;17.70;99.90;;;;;;5056156;28;20126;-58
2022/09/09 12:24:43;;;;;;;5.18;1.55;;;17.90;99.90;;;;;;5058066;28;20433;-59
2022/09/09 12:27:25;;;;;;;4.55;1.33;;;17.90;99.90;;;;;;5068144;28;20071;-58
2022/09/09 12:30:00;;;;;;;6.68;1.80;;;18.00;99.90;;;;;;5068166;28;20049;-58
2022/09/09 12:32:28;;;;;;;5.50;1.52;;;17.90;99.90;;;;;;5067422;28;20029;-59
2022/09/09 12:35:19;;;;;;;5.97;1.60;;;17.90;99.90;;;;;;5067087;28;20111;-58
2022/09/09 12:37:56;;;;;;;4.43;1.42;;;17.90;99.90;;;;;;5058058;28;20025;-58
2022/09/09 12:40:25;;;;;;;3.95;1.83;;;17.80;99.90;;;;;;5051612;28;20044;-58
2022/09/09 12:42:51;;;;;;;5.97;1.70;;;17.80;99.90;;;;;;5079274;28;20059;-58
2022/09/09 12:45:21;;;;;;;5.57;1.48;;;17.70;99.90;;;;;;5066332;28;20294;-58
2022/09/09 12:47:52;;;;;;;4.88;1.30;;;17.70;99.90;;;;;;5065557;28;20104;-58
2022/09/09 12:50:21;;;;;;;5.47;1.98;;;17.70;99.90;;;;;;5061030;28;20021;-58
2022/09/09 12:52:48;;;;;;;6.53;1.87;;;17.70;99.90;;;;;;5050305;28;20358;-58
2022/09/09 12:55:24;;;;;;;4.15;1.58;;;17.70;99.90;;;;;;5050391;28;20743;-58
2022/09/09 12:57:51;;;;;;;5.43;1.95;;;17.70;99.90;;;;;;5050126;28;20489;-58
2022/09/09 13:00:22;;;;;;;4.70;1.52;;;18.00;99.90;;;;;;5050164;28;20542;-58
2022/09/09 13:02:56;;;;;;;5.43;1.70;;;18.20;99.90;;;;;;5043440;28;20388;-58
2022/09/09 13:05:44;;;;;;;5.63;2.05;;;18.30;99.90;;;;;;5054037;28;20021;-58
2022/09/09 13:08:12;;;;;;;5.10;1.63;;;18.30;99.80;;;;;;5049242;28;20542;-58
2022/09/09 13:10:46;;;;;;;6.93;2.08;;;18.30;99.80;;;;;;5065438;28;20029;-58
2022/09/09 13:13:19;;;;;;;5.53;2.05;;;18.40;99.90;;;;;;5056723;28;20025;-58
2022/09/09 13:15:51;;;;;;;5.10;1.35;;;18.70;99.90;;;;;;5049940;28;20025;-58
2022/09/09 13:18:26;;;;;;;5.25;1.40;;;18.80;99.50;;;;;;5048921;28;20027;-59
2022/09/09 13:20:51;;;;;;;5.72;2.08;;;18.80;98.80;;;;;;5046862;28;20017;-58
2022/09/09 13:23:20;;;;;;;7.20;2.10;;;18.90;98.50;;;;;;5050842;28;20017;-58
2022/09/09 13:26:00;;;;;;;5.35;1.50;;;18.90;98.40;;;;;;5049632;28;20033;-58
2022/09/09 13:28:29;;;;;;;5.47;1.52;;;18.90;98.10;;;;;;5047855;28;20025;-58
2022/09/09 13:31:02;;;;;;;3.97;1.17;;;18.80;98.30;;;;;;5049020;28;20021;-58
2022/09/09 13:33:38;;;;;;;6.32;1.25;;;18.70;98.40;;;;;;5048737;28;20074;-58
2022/09/09 13:36:08;;;;;;;5.82;1.63;;;18.80;98.60;;;;;;5048976;28;20031;-58
2022/09/09 13:38:38;;;;;;;4.75;1.35;;;18.90;98.40;;;;;;5047128;28;20047;-59
2022/09/09 13:41:06;;;;;;;7.45;1.10;;;19.00;97.70;;;;;;5045538;28;20436;-58
2022/09/09 13:43:38;;;;;;;3.53;1.05;;;19.00;98.00;;;;;;5046497;28;20048;-58
2022/09/09 13:46:30;;;;;;;3.20;1.20;;;19.00;97.60;;;;;;5049774;28;20078;-58
2022/09/09 13:49:00;;;;;;;7.32;1.27;;;19.00;97.80;;;;;;5035029;28;20042;-58
2022/09/09 13:51:34;;;;;;;4.35;1.85;;;18.90;97.90;;;;;;5041171;28;20032;-58
2022/09/09 13:54:00;;;;;;;4.90;1.67;;;18.90;98.20;;;;;;5048845;28;20078;-58
2022/09/09 13:56:26;;;;;;;3.55;1.02;;;18.90;98.90;;;;;;5048497;28;20108;-58
2022/09/09 13:58:52;;;;;;;4.45;1.42;;;18.90;98.60;;;;;;5043914;28;20037;-58
2022/09/09 14:01:17;;;;;;;4.53;1.40;;;19.00;98.60;;;;;;5049534;28;20059;-58
2022/09/09 14:03:43;;;;;;;4.85;1.60;;;18.90;98.50;;;;;;5044568;28;20036;-58
2022/09/09 14:06:10;;;;;;;3.83;1.25;;;18.90;98.20;;;;;;5042987;28;20033;-58
2022/09/09 14:08:40;;;;;;;3.45;1.30;;;18.80;98.10;;;;;;5050865;28;20028;-58
2022/09/09 14:11:12;;;;;;;4.15;1.25;;;18.90;98.20;;;;;;5035963;28;20031;-58
2022/09/09 14:13:38;;;;;;;4.95;1.30;;;18.90;98.30;;;;;;5050761;28;20037;-59
2022/09/09 14:16:04;;;;;;;5.18;1.50;;;18.90;98.70;;;;;;5051986;28;20036;-58
2022/09/09 14:18:29;;;;;;;4.28;1.27;;;18.90;98.90;;;;;;5050935;28;20035;-58
2022/09/09 14:20:55;;;;;;;7.82;1.70;;;18.90;98.90;;;;;;5048001;28;20029;-59
2022/09/09 14:23:21;;;;;;;4.57;1.25;;;18.80;98.40;;;;;;5047402;28;20048;-58
2022/09/09 14:25:48;;;;;;;4.63;1.33;;;18.80;98.40;;;;;;5053199;28;20100;-59
2022/09/09 14:28:14;;;;;;;3.50;1.58;;;18.80;98.20;;;;;;5052497;28;20469;-58
2022/09/09 14:30:41;;;;;;;5.43;1.58;;;18.80;98.40;;;;;;5051908;28;20021;-59
2022/09/09 14:33:09;;;;;;;4.57;1.58;;;18.80;98.80;;;;;;5050873;28;20036;-59
2022/09/09 14:35:36;;;;;;;4.55;1.42;;;18.80;98.90;;;;;;5048879;28;20037;-59
2022/09/09 14:38:02;;;;;;;4.35;1.33;;;18.90;98.90;;;;;;5047272;28;20048;-58